Time;durP1;ratioP1;P1;durP2;ratioP2;P2;SDS_P1;SDS_P2;PMS_P1;PMS_P2;Temp;Humidity;BMP_temperature;BMP_pressure;BME280_temperature;BME280_humidity;BME280_pressure;Samples;Min_cycle;Max_cycle;Signal;HPM_P1;HPM_P2
2023/12/17 00:01:45;;;;;;;;;;;;;;;22.61;38.38;103627.94;5019110;28;20395;-49
2023/12/17 00:04:10;;;;;;;;;;;;;;;22.61;37.97;103619.78;5007730;28;19967;-50
2023/12/17 00:06:37;;;;;;;;;;;;;;;22.61;38.15;103625.22;5019769;28;19917;-48
2023/12/17 00:09:02;;;;;;;;;;;;;;;22.61;38.23;103617.09;5020416;28;19910;-50
2023/12/17 00:11:28;;;;;;;;;;;;;;;22.61;38.08;103618.94;5037519;28;20588;-48
2023/12/17 00:13:53;;;;;;;;;;;;;;;22.60;38.23;103628.94;5025578;28;19947;-49
2023/12/17 00:16:18;;;;;;;;;;;;;;;22.62;38.11;103616.09;5008778;28;19925;-47
2023/12/17 00:18:43;;;;;;;;;;;;;;;22.65;38.06;103620.41;5009606;28;19914;-48
2023/12/17 00:21:08;;;;;;;;;;;;;;;22.66;38.18;103622.97;5031344;28;19982;-45
2023/12/17 00:23:33;;;;;;;;;;;;;;;22.68;38.07;103614.69;5028464;28;19922;-48
2023/12/17 00:25:59;;;;;;;;;;;;;;;22.71;37.86;103617.16;5025167;28;19949;-44
2023/12/17 00:28:24;;;;;;;;;;;;;;;22.73;37.76;103617.06;5033291;28;19913;-48
2023/12/17 00:30:50;;;;;;;;;;;;;;;22.75;37.83;103615.91;5013855;28;19921;-47
2023/12/17 00:33:15;;;;;;;;;;;;;;;22.77;37.77;103613.97;5020327;28;19913;-45
2023/12/17 00:35:41;;;;;;;;;;;;;;;22.78;37.54;103607.53;5024415;28;20653;-46
2023/12/17 00:38:06;;;;;;;;;;;;;;;22.80;37.36;103605.53;5044089;28;19987;-45
2023/12/17 00:40:31;;;;;;;;;;;;;;;22.81;37.50;103609.09;5032535;28;19945;-47
2023/12/17 00:42:57;;;;;;;;;;;;;;;22.82;37.53;103617.13;5042270;28;19927;-45
2023/12/17 00:45:22;;;;;;;;;;;;;;;22.84;37.56;103617.00;5024279;28;19918;-47
2023/12/17 00:47:47;;;;;;;;;;;;;;;22.85;37.26;103613.28;5010255;28;19953;-44
2023/12/17 00:50:12;;;;;;;;;;;;;;;22.85;37.56;103605.16;5052317;28;19913;-45
2023/12/17 00:52:37;;;;;;;;;;;;;;;22.85;37.34;103597.91;5020111;28;19917;-46
2023/12/17 00:55:03;;;;;;;;;;;;;;;22.87;37.35;103593.19;5011280;28;20460;-50
2023/12/17 00:57:28;;;;;;;;;;;;;;;22.86;37.32;103596.91;5023993;28;19921;-50
2023/12/17 00:59:53;;;;;;;;;;;;;;;22.84;37.18;103588.00;5011418;28;20012;-47
2023/12/17 01:02:18;;;;;;;;;;;;;;;22.84;37.18;103585.31;5003735;28;19914;-45
2023/12/17 01:04:43;;;;;;;;;;;;;;;22.85;37.25;103572.59;5030122;28;19917;-46
2023/12/17 01:07:08;;;;;;;;;;;;;;;22.85;37.31;103576.19;5034125;28;19925;-43
2023/12/17 01:09:34;;;;;;;;;;;;;;;22.86;36.93;103579.75;5081258;28;19953;-45
2023/12/17 01:12:02;;;;;;;;;;;;;;;22.84;37.25;103579.88;5022719;28;19914;-46
2023/12/17 01:14:28;;;;;;;;;;;;;;;22.84;37.22;103585.31;5031648;28;19922;-44
2023/12/17 01:16:53;;;;;;;;;;;;;;;22.83;37.01;103590.88;5002912;28;19957;-46
2023/12/17 01:19:18;;;;;;;;;;;;;;;22.82;37.15;103592.72;5053462;28;19913;-45
2023/12/17 01:21:43;;;;;;;;;;;;;;;22.83;37.12;103591.72;5043058;28;19914;-50
2023/12/17 01:24:10;;;;;;;;;;;;;;;22.82;37.20;103598.16;5016816;28;19922;-47
2023/12/17 01:26:35;;;;;;;;;;;;;;;22.82;36.90;103589.16;5009217;28;19918;-49
2023/12/17 01:29:01;;;;;;;;;;;;;;;22.81;37.33;103588.28;5020287;28;20226;-48
2023/12/17 01:31:26;;;;;;;;;;;;;;;22.79;37.29;103587.56;5021256;28;20380;-46
2023/12/17 01:33:51;;;;;;;;;;;;;;;22.78;37.22;103580.41;5027106;28;19918;-45
2023/12/17 01:36:16;;;;;;;;;;;;;;;22.78;37.33;103587.69;5091400;28;19962;-47
2023/12/17 01:38:41;;;;;;;;;;;;;;;22.77;37.24;103592.25;5033606;28;19924;-45
2023/12/17 01:41:07;;;;;;;;;;;;;;;22.74;37.11;103584.38;5009817;28;19914;-49
2023/12/17 01:43:32;;;;;;;;;;;;;;;22.74;37.32;103587.09;5026251;28;19978;-45
2023/12/17 01:45:57;;;;;;;;;;;;;;;22.71;37.27;103590.03;5028012;28;19914;-48
2023/12/17 01:48:22;;;;;;;;;;;;;;;22.67;37.31;103594.84;5081877;28;19919;-46
2023/12/17 01:50:48;;;;;;;;;;;;;;;22.66;37.21;103595.00;5036135;28;19914;-49
2023/12/17 01:53:14;;;;;;;;;;;;;;;22.65;37.39;103596.84;5068553;28;19919;-47
2023/12/17 01:55:40;;;;;;;;;;;;;;;22.64;37.23;103591.53;5011060;28;19973;-47
2023/12/17 01:58:05;;;;;;;;;;;;;;;22.61;37.47;103586.41;5071592;28;19989;-45
2023/12/17 02:00:31;;;;;;;;;;;;;;;22.59;37.24;103593.78;5071146;28;19912;-47
2023/12/17 02:02:56;;;;;;;;;;;;;;;22.56;37.23;103584.06;5043124;28;19989;-48
2023/12/17 02:05:21;;;;;;;;;;;;;;;22.54;37.31;103591.47;5026266;28;19951;-48
2023/12/17 02:07:46;;;;;;;;;;;;;;;22.48;37.65;103586.56;5030137;28;19916;-45
2023/12/17 02:10:12;;;;;;;;;;;;;;;22.45;37.78;103586.81;5068399;28;19914;-45
2023/12/17 02:12:37;;;;;;;;;;;;;;;22.42;37.87;103598.75;5013680;28;19965;-45
2023/12/17 02:15:02;;;;;;;;;;;;;;;22.41;37.83;103594.31;5036037;28;19919;-47
2023/12/17 02:17:28;;;;;;;;;;;;;;;22.35;37.76;103602.97;5038091;28;19967;-44
2023/12/17 02:19:54;;;;;;;;;;;;;;;22.31;37.91;103603.38;5029874;28;20276;-49
2023/12/17 02:22:19;;;;;;;;;;;;;;;22.29;37.63;103608.88;5030013;28;19918;-45
2023/12/17 02:24:45;;;;;;;;;;;;;;;22.27;37.88;103596.47;5039173;28;19952;-48
2023/12/17 02:27:10;;;;;;;;;;;;;;;22.24;37.88;103591.28;5011710;28;19914;-46
2023/12/17 02:29:38;;;;;;;;;;;;;;;22.24;37.96;103596.72;5026823;28;19946;-47
2023/12/17 02:32:03;;;;;;;;;;;;;;;22.20;37.73;103586.13;5033110;28;19913;-47
2023/12/17 02:34:29;;;;;;;;;;;;;;;22.15;38.11;103590.19;5023666;28;19921;-48
2023/12/17 02:36:54;;;;;;;;;;;;;;;22.13;38.11;103579.50;5023220;28;19993;-46
2023/12/17 02:39:19;;;;;;;;;;;;;;;22.15;38.16;103587.50;5033878;28;19964;-46
2023/12/17 02:41:44;;;;;;;;;;;;;;;22.13;38.23;103582.22;5022719;28;19914;-48
2023/12/17 02:44:09;;;;;;;;;;;;;;;22.13;38.10;103584.03;5053569;28;19916;-49
2023/12/17 02:46:34;;;;;;;;;;;;;;;22.13;37.92;103587.63;5043363;28;20390;-49
2023/12/17 02:49:00;;;;;;;;;;;;;;;22.12;37.93;103587.69;5021077;28;19921;-47
2023/12/17 02:51:25;;;;;;;;;;;;;;;22.12;37.84;103584.97;5022677;28;19981;-45
2023/12/17 02:53:50;;;;;;;;;;;;;;;22.11;38.07;103580.56;5028078;28;19917;-46
2023/12/17 02:56:15;;;;;;;;;;;;;;;22.11;37.94;103572.44;5065670;28;19924;-47
2023/12/17 02:58:40;;;;;;;;;;;;;;;22.11;38.06;103576.00;5023711;28;19978;-45
2023/12/17 03:01:06;;;;;;;;;;;;;;;22.11;38.05;103572.44;5051910;28;20000;-47
2023/12/17 03:03:31;;;;;;;;;;;;;;;22.10;37.85;103573.44;5026662;28;19955;-47
2023/12/17 03:05:56;;;;;;;;;;;;;;;22.07;38.20;103574.53;5021798;28;19945;-48
2023/12/17 03:08:21;;;;;;;;;;;;;;;22.07;38.08;103577.22;5019259;28;19913;-46
2023/12/17 03:10:46;;;;;;;;;;;;;;;22.05;38.32;103579.22;5056143;28;19918;-46
2023/12/17 03:13:11;;;;;;;;;;;;;;;22.06;37.83;103566.53;5048767;28;20364;-44
2023/12/17 03:15:37;;;;;;;;;;;;;;;22.04;38.09;103563.06;5035430;28;19917;-48
2023/12/17 03:18:03;;;;;;;;;;;;;;;22.05;37.87;103562.97;5022041;28;20348;-47
2023/12/17 03:20:28;;;;;;;;;;;;;;;22.00;37.96;103558.88;5013216;28;19952;-48
2023/12/17 03:22:53;;;;;;;;;;;;;;;21.99;37.99;103551.75;5020541;28;20038;-46
2023/12/17 03:25:18;;;;;;;;;;;;;;;22.01;38.00;103552.50;5041130;28;19914;-47
2023/12/17 03:27:44;;;;;;;;;;;;;;;22.00;38.01;103548.06;5023437;28;19923;-45
2023/12/17 03:30:09;;;;;;;;;;;;;;;;;;5026482;28;19918;-46
2023/12/17 03:32:34;;;;;;;;;;;;;;;21.94;38.15;103550.28;5036707;28;19910;-49
2023/12/17 03:35:00;;;;;;;;;;;;;;;21.94;38.04;103546.72;5018962;28;19914;-47
2023/12/17 03:37:25;;;;;;;;;;;;;;;21.93;38.33;103553.97;5010389;28;19914;-44
2023/12/17 03:39:51;;;;;;;;;;;;;;;21.90;38.30;103553.38;5017484;28;19918;-48
2023/12/17 03:42:16;;;;;;;;;;;;;;;21.89;38.33;103552.50;5028870;28;20324;-48
2023/12/17 03:44:41;;;;;;;;;;;;;;;21.90;38.02;103550.66;5031993;28;19939;-45
2023/12/17 03:47:06;;;;;;;;;;;;;;;21.89;38.05;103554.34;5026048;28;19913;-46
2023/12/17 03:49:32;;;;;;;;;;;;;;;21.88;38.17;103553.50;5021360;28;19945;-50
2023/12/17 03:51:57;;;;;;;;;;;;;;;21.88;38.31;103544.53;5009376;28;19916;-47
2023/12/17 03:54:22;;;;;;;;;;;;;;;21.87;38.43;103540.91;5016319;28;19928;-46
2023/12/17 03:56:47;;;;;;;;;;;;;;;21.86;38.43;103543.75;5036871;28;19920;-48
2023/12/17 03:59:13;;;;;;;;;;;;;;;21.84;38.38;103549.31;5010315;28;20442;-45
2023/12/17 04:01:47;;;;;;;;;;;;;;;21.81;38.18;103549.56;5014285;28;19917;-45
2023/12/17 04:04:13;;;;;;;;;;;;;;;21.82;38.21;103550.41;5015934;28;19962;-44
2023/12/17 04:06:40;;;;;;;;;;;;;;;21.81;38.25;103557.69;5018212;28;19960;-46
2023/12/17 04:09:05;;;;;;;;;;;;;;;21.78;38.50;103549.78;5075352;28;19914;-46
2023/12/17 04:11:30;;;;;;;;;;;;;;;21.78;38.47;103546.22;5041168;28;19953;-47
2023/12/17 04:13:55;;;;;;;;;;;;;;;21.77;38.47;103547.22;5023119;28;20381;-46
2023/12/17 04:16:20;;;;;;;;;;;;;;;21.75;38.31;103552.78;5016248;28;19914;-44
2023/12/17 04:18:46;;;;;;;;;;;;;;;21.73;38.49;103543.91;5041619;28;20005;-45
2023/12/17 04:21:11;;;;;;;;;;;;;;;21.70;38.35;103545.00;5040706;28;19920;-45
2023/12/17 04:23:36;;;;;;;;;;;;;;;21.67;38.47;103539.84;5075343;28;19925;-45
2023/12/17 04:26:01;;;;;;;;;;;;;;;21.64;38.69;103534.66;5040769;28;19912;-45
2023/12/17 04:28:26;;;;;;;;;;;;;;;21.62;38.60;103533.94;5086779;28;19916;-44
2023/12/17 04:30:51;;;;;;;;;;;;;;;21.60;38.36;103522.34;5009749;28;19913;-45
2023/12/17 04:33:17;;;;;;;;;;;;;;;21.59;38.43;103522.50;5016188;28;19913;-47
2023/12/17 04:35:42;;;;;;;;;;;;;;;21.56;38.61;103515.47;5022177;28;19936;-46
2023/12/17 04:38:07;;;;;;;;;;;;;;;21.55;38.49;103519.16;5039956;28;19960;-45
2023/12/17 04:40:32;;;;;;;;;;;;;;;21.52;38.41;103521.25;5045997;28;19920;-45
2023/12/17 04:42:57;;;;;;;;;;;;;;;21.50;38.76;103524.09;5031818;28;19929;-46
2023/12/17 04:45:22;;;;;;;;;;;;;;;21.49;38.67;103525.06;5018818;28;19913;-44
2023/12/17 04:47:48;;;;;;;;;;;;;;;21.48;38.87;103523.34;5020890;28;19918;-45
2023/12/17 04:50:13;;;;;;;;;;;;;;;21.45;38.82;103516.34;5042363;28;20334;-46
2023/12/17 04:52:38;;;;;;;;;;;;;;;21.44;38.84;103525.41;5030962;28;20359;-44
2023/12/17 04:55:04;;;;;;;;;;;;;;;21.42;38.61;103524.69;5019289;28;20372;-44
2023/12/17 04:57:29;;;;;;;;;;;;;;;21.41;38.83;103519.41;5088648;28;19925;-45
2023/12/17 04:59:56;;;;;;;;;;;;;;;21.38;38.64;103520.50;5012722;28;19918;-44
2023/12/17 05:02:21;;;;;;;;;;;;;;;21.37;38.96;103515.22;5009529;28;19912;-44
2023/12/17 05:04:46;;;;;;;;;;;;;;;21.35;38.71;103518.03;5016425;28;19933;-46
2023/12/17 05:07:11;;;;;;;;;;;;;;;21.34;39.10;103521.75;5034937;28;20125;-44
2023/12/17 05:09:37;;;;;;;;;;;;;;;21.31;38.92;103508.41;5007709;28;19912;-45
2023/12/17 05:12:02;;;;;;;;;;;;;;;21.30;39.10;103509.41;5030479;28;19971;-45
2023/12/17 05:14:27;;;;;;;;;;;;;;;21.28;39.08;103514.09;5018943;28;19914;-49
2023/12/17 05:16:53;;;;;;;;;;;;;;;21.28;39.18;103510.50;5006810;28;19955;-49
2023/12/17 05:19:18;;;;;;;;;;;;;;;21.24;39.10;103501.78;5007321;28;20154;-44
2023/12/17 05:21:43;;;;;;;;;;;;;;;21.24;38.88;103504.50;5002687;28;19940;-44
2023/12/17 05:24:08;;;;;;;;;;;;;;;21.23;38.97;103500.03;5029909;28;19929;-43
2023/12/17 05:26:33;;;;;;;;;;;;;;;21.23;39.29;103494.63;5020500;28;19958;-47
2023/12/17 05:28:58;;;;;;;;;;;;;;;21.21;38.98;103508.28;5063584;28;20201;-46
2023/12/17 05:31:24;;;;;;;;;;;;;;;21.21;39.24;103507.44;5009507;28;19918;-49
2023/12/17 05:33:49;;;;;;;;;;;;;;;21.20;39.15;103503.88;5009735;28;19913;-46
2023/12/17 05:36:14;;;;;;;;;;;;;;;21.18;39.00;103505.81;5082081;28;19940;-47
2023/12/17 05:38:39;;;;;;;;;;;;;;;21.17;39.34;103504.09;5064531;28;19953;-49
2023/12/17 05:41:05;;;;;;;;;;;;;;;21.16;39.38;103513.19;5015922;28;19914;-48
2023/12/17 05:43:30;;;;;;;;;;;;;;;21.15;39.35;103508.78;5036187;28;19916;-48
2023/12/17 05:45:55;;;;;;;;;;;;;;;21.15;39.43;103513.31;5036605;28;19924;-49
2023/12/17 05:48:21;;;;;;;;;;;;;;;21.12;39.43;103509.00;5011772;28;19920;-47
2023/12/17 05:50:47;;;;;;;;;;;;;;;21.12;39.14;103503.59;5037260;28;19924;-45
2023/12/17 05:53:12;;;;;;;;;;;;;;;21.12;39.20;103521.69;5027130;28;20272;-47
2023/12/17 05:55:37;;;;;;;;;;;;;;;21.08;39.51;103523.75;5023122;28;20280;-48
2023/12/17 05:58:03;;;;;;;;;;;;;;;21.07;39.61;103521.16;5020406;28;20362;-51
2023/12/17 06:00:28;;;;;;;;;;;;;;;21.05;39.43;103529.41;5013227;28;19925;-44
2023/12/17 06:02:53;;;;;;;;;;;;;;;21.06;39.52;103530.25;5003221;28;19982;-46
2023/12/17 06:05:18;;;;;;;;;;;;;;;21.03;39.69;103525.97;5035862;28;19914;-45
2023/12/17 06:07:43;;;;;;;;;;;;;;;21.04;39.66;103527.69;5026864;28;19916;-43
2023/12/17 06:10:09;;;;;;;;;;;;;;;21.05;39.90;103529.41;5007896;28;19922;-46
2023/12/17 06:12:34;;;;;;;;;;;;;;;21.05;39.79;103533.94;5015744;28;19912;-43
2023/12/17 06:14:59;;;;;;;;;;;;;;;21.05;39.81;103528.53;5017336;28;20382;-48
2023/12/17 06:17:24;;;;;;;;;;;;;;;21.03;39.95;103530.53;5044669;28;20322;-49
2023/12/17 06:19:49;;;;;;;;;;;;;;;21.04;40.20;103526.81;5027113;28;19953;-45
2023/12/17 06:22:16;;;;;;;;;;;;;;;21.03;39.95;103519.69;5017924;28;19922;-45
2023/12/17 06:24:41;;;;;;;;;;;;;;;21.03;40.18;103517.00;5014848;28;19924;-47
2023/12/17 06:27:13;;;;;;;;;;;;;;;21.02;39.99;103521.50;5000452;28;19993;-47
2023/12/17 06:29:38;;;;;;;;;;;;;;;21.00;40.17;103526.19;5035449;28;19916;-45
2023/12/17 06:32:04;;;;;;;;;;;;;;;21.00;40.19;103528.03;5024340;28;19917;-44
2023/12/17 06:34:29;;;;;;;;;;;;;;;20.98;40.35;103520.03;5029470;28;19940;-45
2023/12/17 06:36:54;;;;;;;;;;;;;;;20.97;40.35;103534.53;5027516;28;20398;-46
2023/12/17 06:39:20;;;;;;;;;;;;;;;20.97;40.50;103523.72;5007204;28;19932;-46
2023/12/17 06:41:45;;;;;;;;;;;;;;;20.96;40.63;103532.81;5001457;28;20014;-47
2023/12/17 06:44:10;;;;;;;;;;;;;;;20.93;40.40;103520.38;5006107;28;19931;-46
2023/12/17 06:46:35;;;;;;;;;;;;;;;20.91;40.68;103529.63;5000294;28;19949;-47
2023/12/17 06:49:00;;;;;;;;;;;;;;;20.89;40.98;103520.75;5010964;28;20010;-50
2023/12/17 06:51:26;;;;;;;;;;;;;;;20.90;40.67;103519.78;5013618;28;19918;-48
2023/12/17 06:53:51;;;;;;;;;;;;;;;20.90;40.92;103514.38;5007496;28;19917;-47
2023/12/17 06:56:16;;;;;;;;;;;;;;;20.40;40.49;103433.44;5005977;28;19933;-47
2023/12/17 06:58:41;;;;;;;;;;;;;;;20.91;40.81;103519.66;5007639;28;19959;-48
2023/12/17 07:01:06;;;;;;;;;;;;;;;20.91;40.95;103521.50;5001746;28;19918;-45
2023/12/17 07:03:32;;;;;;;;;;;;;;;20.89;40.77;103524.31;4998903;28;19922;-45
2023/12/17 07:05:58;;;;;;;;;;;;;;;20.90;40.56;103530.59;5001333;28;19914;-46
2023/12/17 07:08:25;;;;;;;;;;;;;;;20.89;40.82;103532.41;4999956;28;19917;-45
2023/12/17 07:10:50;;;;;;;;;;;;;;;20.89;40.92;103534.25;5000937;28;20017;-44
2023/12/17 07:13:15;;;;;;;;;;;;;;;20.88;40.81;103543.38;5002581;28;19922;-47
2023/12/17 07:15:40;;;;;;;;;;;;;;;20.86;40.57;103535.38;5011514;28;19964;-47
2023/12/17 07:18:06;;;;;;;;;;;;;;;20.86;40.71;103537.22;5002836;28;19925;-45
2023/12/17 07:20:31;;;;;;;;;;;;;;;20.85;40.88;103532.78;5002117;28;19971;-46
2023/12/17 07:22:57;;;;;;;;;;;;;;;20.83;41.20;103532.03;5002010;28;19925;-50
2023/12/17 07:25:24;;;;;;;;;;;;;;;20.82;41.00;103535.75;5007741;28;19922;-45
2023/12/17 07:27:49;;;;;;;;;;;;;;;20.81;41.18;103524.03;5000652;28;19913;-47
2023/12/17 07:30:15;;;;;;;;;;;;;;;20.81;40.99;103524.03;5007344;28;19914;-45
2023/12/17 07:32:41;;;;;;;;;;;;;;;20.80;40.99;103527.72;4998395;28;20285;-45
2023/12/17 07:35:07;;;;;;;;;;;;;;;20.80;41.06;103526.88;4999235;28;19913;-46
2023/12/17 07:37:32;;;;;;;;;;;;;;;20.80;41.12;103521.47;4995787;28;19913;-46
2023/12/17 07:39:57;;;;;;;;;;;;;;;20.80;41.23;103522.31;5006806;28;19917;-48
2023/12/17 07:42:23;;;;;;;;;;;;;;;20.80;41.21;103533.13;5003064;28;19952;-46
2023/12/17 07:44:48;;;;;;;;;;;;;;;20.79;41.04;103542.22;5015890;28;19930;-47
2023/12/17 07:47:14;;;;;;;;;;;;;;;20.80;41.18;103532.28;5003743;28;20288;-47
2023/12/17 07:49:39;;;;;;;;;;;;;;;20.80;41.09;103534.97;4998924;28;19967;-45
2023/12/17 07:52:04;;;;;;;;;;;;;;;20.80;41.30;103533.13;5004668;28;19921;-45
2023/12/17 07:54:30;;;;;;;;;;;;;;;20.79;41.35;103544.94;4993732;28;19925;-47
2023/12/17 07:56:55;;;;;;;;;;;;;;;20.80;41.12;103545.78;5004605;28;19922;-48
2023/12/17 07:59:20;;;;;;;;;;;;;;;20.79;40.99;103528.72;5002441;28;19914;-48
2023/12/17 08:01:45;;;;;;;;;;;;;;;20.78;41.26;103532.41;5001047;28;19922;-45
2023/12/17 08:04:10;;;;;;;;;;;;;;;20.78;41.32;103528.84;5004877;28;20375;-46
2023/12/17 08:06:36;;;;;;;;;;;;;;;20.78;41.05;103523.44;5000246;28;19928;-44
2023/12/17 08:09:01;;;;;;;;;;;;;;;20.77;41.34;103536.06;4998384;28;20384;-44
2023/12/17 08:11:26;;;;;;;;;;;;;;;20.77;41.37;103537.91;5009970;28;19924;-47
2023/12/17 08:13:51;;;;;;;;;;;;;;;20.77;41.33;103529.78;5009362;28;19936;-46
2023/12/17 08:16:16;;;;;;;;;;;;;;;20.77;41.02;103535.19;5002594;28;19933;-48
2023/12/17 08:18:42;;;;;;;;;;;;;;;20.78;41.27;103526.13;5000711;28;19925;-44
2023/12/17 08:21:07;;;;;;;;;;;;;;;20.78;41.24;103527.00;5002514;28;19996;-48
2023/12/17 08:23:32;;;;;;;;;;;;;;;20.78;41.33;103526.13;5008545;28;19925;-48
2023/12/17 08:25:57;;;;;;;;;;;;;;;20.77;41.24;103525.25;5004525;28;19928;-48
2023/12/17 08:28:22;;;;;;;;;;;;;;;20.77;40.98;103519.84;5010740;28;19969;-45
2023/12/17 08:30:48;;;;;;;;;;;;;;;20.78;40.89;103518.03;5004043;28;19918;-49
2023/12/17 08:33:13;;;;;;;;;;;;;;;20.77;40.86;103521.69;5013603;28;19913;-45
2023/12/17 08:35:39;;;;;;;;;;;;;;;20.76;41.19;103520.81;5005896;28;19960;-45
2023/12/17 08:38:05;;;;;;;;;;;;;;;20.77;41.15;103524.38;5007222;28;19914;-46
2023/12/17 08:40:37;;;;;;;;;;;;;;;20.76;40.87;103519.97;5010336;28;19936;-45
2023/12/17 08:43:02;;;;;;;;;;;;;;;20.75;40.93;103519.09;5014184;28;19927;-44
2023/12/17 08:45:27;;;;;;;;;;;;;;;20.76;41.15;103517.25;5019202;28;19925;-46
2023/12/17 08:47:53;;;;;;;;;;;;;;;20.74;41.29;103520.09;5004503;28;19914;-44
2023/12/17 08:50:18;;;;;;;;;;;;;;;20.76;41.12;103528.06;5014900;28;19914;-47
2023/12/17 08:52:43;;;;;;;;;;;;;;;20.75;41.08;103519.09;5004422;28;19914;-46
2023/12/17 08:55:09;;;;;;;;;;;;;;;20.75;41.02;103521.81;5003304;28;19922;-46
2023/12/17 08:57:34;;;;;;;;;;;;;;;20.75;41.01;103518.25;5008623;28;19917;-43
2023/12/17 08:59:59;;;;;;;;;;;;;;;20.74;41.25;103516.53;4998249;28;19928;-44
2023/12/17 09:02:24;;;;;;;;;;;;;;;20.72;41.30;103505.81;5012741;28;19920;-45
2023/12/17 09:04:51;;;;;;;;;;;;;;;20.72;41.22;103509.38;5011697;28;20117;-45
2023/12/17 09:07:16;;;;;;;;;;;;;;;20.73;41.22;103499.47;5008575;28;19968;-47
2023/12/17 09:09:42;;;;;;;;;;;;;;;20.74;41.33;103513.84;5011281;28;19929;-47
2023/12/17 09:12:07;;;;;;;;;;;;;;;20.72;40.97;103512.09;5009889;28;19940;-44
2023/12/17 09:14:32;;;;;;;;;;;;;;;20.75;41.33;103504.72;5004547;28;19929;-44
2023/12/17 09:16:57;;;;;;;;;;;;;;;20.75;41.39;103504.72;5005552;28;20171;-44
2023/12/17 09:19:23;;;;;;;;;;;;;;;20.75;41.44;103504.72;5002337;28;19921;-45
2023/12/17 09:21:48;;;;;;;;;;;;;;;20.76;41.11;103510.00;5004012;28;19967;-44
2023/12/17 09:24:13;;;;;;;;;;;;;;;20.76;41.13;103511.84;5011039;28;20288;-44
2023/12/17 09:26:39;;;;;;;;;;;;;;;20.76;41.24;103515.41;5005613;28;19924;-46
2023/12/17 09:29:04;;;;;;;;;;;;;;;20.76;41.18;103522.66;5010706;28;19918;-45
2023/12/17 09:31:29;;;;;;;;;;;;;;;20.77;41.36;103516.28;4998792;28;19921;-46
2023/12/17 09:33:54;;;;;;;;;;;;;;;20.76;41.42;103515.41;4996564;28;19979;-48
2023/12/17 09:36:19;;;;;;;;;;;;;;;20.76;41.51;103517.25;5007733;28;19958;-45
2023/12/17 09:38:45;;;;;;;;;;;;;;;20.74;41.33;103525.50;5016867;28;19917;-48
2023/12/17 09:41:10;;;;;;;;;;;;;;;20.76;41.43;103525.38;4999953;28;20368;-49
2023/12/17 09:43:35;;;;;;;;;;;;;;;20.75;41.33;103513.69;4995071;28;19971;-46
2023/12/17 09:46:00;;;;;;;;;;;;;;;20.76;41.43;103506.44;4994577;28;20021;-49
2023/12/17 09:48:25;;;;;;;;;;;;;;;20.75;41.20;103513.69;4995620;28;19914;-46
2023/12/17 09:50:51;;;;;;;;;;;;;;;20.77;41.43;103510.88;5063555;28;19961;-46
2023/12/17 09:53:16;;;;;;;;;;;;;;;20.77;41.36;103516.28;5063910;28;20364;-44
2023/12/17 09:55:41;;;;;;;;;;;;;;;20.77;41.33;103517.13;5026455;28;19933;-49
2023/12/17 09:58:06;;;;;;;;;;;;;;;20.77;41.19;103513.56;5031666;28;19928;-48
2023/12/17 10:00:31;;;;;;;;;;;;;;;20.77;41.39;103506.31;5000413;28;19914;-46
2023/12/17 10:03:06;;;;;;;;;;;;;;;20.77;41.38;103518.97;5005940;28;19921;-47
2023/12/17 10:05:32;;;;;;;;;;;;;;;20.77;41.14;103510.88;5013990;28;19916;-46
2023/12/17 10:07:57;;;;;;;;;;;;;;;20.77;41.11;103510.88;5075112;28;19914;-48
2023/12/17 10:10:23;;;;;;;;;;;;;;;20.76;41.26;103514.56;5000136;28;19921;-48
2023/12/17 10:12:49;;;;;;;;;;;;;;;20.76;41.21;103514.56;5009651;28;19917;-48
2023/12/17 10:15:14;;;;;;;;;;;;;;;20.75;40.82;103500.19;5018992;28;19918;-45
2023/12/17 10:17:40;;;;;;;;;;;;;;;20.76;41.07;103511.84;5068965;28;19925;-45
2023/12/17 10:20:06;;;;;;;;;;;;;;;20.74;40.77;103498.47;5078334;28;19913;-49
2023/12/17 10:22:31;;;;;;;;;;;;;;;20.74;40.94;103503.00;5031781;28;19921;-47
2023/12/17 10:24:56;;;;;;;;;;;;;;;20.74;41.00;103506.56;5009337;28;19930;-48
2023/12/17 10:27:22;;;;;;;;;;;;;;;20.75;40.70;103500.19;5006513;28;19922;-44
2023/12/17 10:29:48;;;;;;;;;;;;;;;20.76;40.95;103501.03;5032107;28;19939;-45
2023/12/17 10:32:13;;;;;;;;;;;;;;;20.76;41.02;103496.50;5007527;28;19990;-45
2023/12/17 10:34:39;;;;;;;;;;;;;;;20.76;40.89;103492.94;5072439;28;19979;-47
2023/12/17 10:37:04;;;;;;;;;;;;;;;20.78;40.87;103486.44;5029112;28;19928;-44
2023/12/17 10:39:29;;;;;;;;;;;;;;;20.77;41.36;103481.97;5020742;28;20360;-47
2023/12/17 10:41:57;;;;;;;;;;;;;;;20.79;41.37;103480.03;5068597;28;19916;-46
2023/12/17 10:44:22;;;;;;;;;;;;;;;20.80;41.49;103475.50;5033189;28;19917;-47
2023/12/17 10:46:47;;;;;;;;;;;;;;;20.80;41.28;103481.75;5059448;28;19921;-44
2023/12/17 10:49:12;;;;;;;;;;;;;;;20.82;41.15;103473.53;5076994;28;19978;-45
2023/12/17 10:51:41;;;;;;;;;;;;;;;20.85;41.30;103478.69;5050640;28;19928;-46
2023/12/17 10:54:07;;;;;;;;;;;;;;;20.87;41.12;103482.16;5026309;28;19933;-46
2023/12/17 10:56:35;;;;;;;;;;;;;;;20.88;41.11;103471.22;5017279;28;19920;-45
2023/12/17 10:59:02;;;;;;;;;;;;;;;20.89;41.36;103481.03;5015703;28;20032;-47
2023/12/17 11:01:27;;;;;;;;;;;;;;;20.92;41.04;103480.81;5066733;28;20114;-46
2023/12/17 11:03:52;;;;;;;;;;;;;;;20.94;41.33;103473.44;5045033;28;19920;-45
2023/12/17 11:06:18;;;;;;;;;;;;;;;20.99;40.88;103485.75;5002997;28;20346;-46
2023/12/17 11:08:43;;;;;;;;;;;;;;;21.01;40.94;103476.53;5069156;28;19928;-44
2023/12/17 11:11:08;;;;;;;;;;;;;;;21.04;41.03;103468.16;5020936;28;19928;-44
2023/12/17 11:13:33;;;;;;;;;;;;;;;21.08;40.81;103463.38;5069141;28;19917;-44
2023/12/17 11:16:10;;;;;;;;;;;;;;;21.09;41.08;103463.25;5074008;28;19916;-46
2023/12/17 11:18:42;;;;;;;;;;;;;;;21.11;41.06;103461.31;5066423;28;19925;-45
2023/12/17 11:21:07;;;;;;;;;;;;;;;21.16;40.66;103460.94;5014970;28;20368;-48
2023/12/17 11:23:32;;;;;;;;;;;;;;;21.19;40.83;103457.97;5033825;28;19957;-44
2023/12/17 11:25:58;;;;;;;;;;;;;;;21.19;40.62;103453.41;5066786;28;19942;-46
2023/12/17 11:28:26;;;;;;;;;;;;;;;21.22;40.59;103458.59;5067806;28;19914;-47
2023/12/17 11:30:51;;;;;;;;;;;;;;;21.26;40.36;103451.09;5030957;28;19947;-48
2023/12/17 11:33:17;;;;;;;;;;;;;;;21.29;40.30;103450.84;5069765;28;19925;-44
2023/12/17 11:35:42;;;;;;;;;;;;;;;21.32;40.17;103436.22;5087410;28;20520;-46
2023/12/17 11:38:07;;;;;;;;;;;;;;;21.35;40.48;103442.25;5070082;28;19981;-44
2023/12/17 11:40:32;;;;;;;;;;;;;;;21.38;40.34;103441.16;5019727;28;19929;-44
2023/12/17 11:42:58;;;;;;;;;;;;;;;21.42;40.20;103438.09;5065080;28;19914;-45
2023/12/17 11:45:30;;;;;;;;;;;;;;;21.45;40.18;103443.25;5018647;28;19921;-46
2023/12/17 11:47:55;;;;;;;;;;;;;;;21.49;40.09;103438.44;5038320;28;19914;-45
2023/12/17 11:50:20;;;;;;;;;;;;;;;21.52;40.07;103424.66;5008615;28;20496;-45
2023/12/17 11:52:46;;;;;;;;;;;;;;;21.55;40.01;103432.53;5031160;28;19938;-45
2023/12/17 11:55:11;;;;;;;;;;;;;;;21.59;39.55;103427.75;5018114;28;19965;-44
2023/12/17 11:57:36;;;;;;;;;;;;;;;21.63;39.36;103432.78;5009784;28;19917;-45
2023/12/17 12:00:06;;;;;;;;;;;;;;;21.67;39.40;103425.28;5027296;28;19920;-45
2023/12/17 12:02:33;;;;;;;;;;;;;;;21.71;39.35;103429.44;5066620;28;19913;-46
2023/12/17 12:04:58;;;;;;;;;;;;;;;21.73;39.53;103421.19;5008848;28;19966;-46
2023/12/17 12:07:23;;;;;;;;;;;;;;;21.78;39.26;103421.66;5021788;28;20007;-45
2023/12/17 12:09:49;;;;;;;;;;;;;;;21.81;39.03;103421.41;5036331;28;19925;-45
2023/12/17 12:12:15;;;;;;;;;;;;;;;21.77;39.05;103398.28;5015418;28;19924;-47
2023/12/17 12:14:40;;;;;;;;;;;;;;;21.86;39.05;103411.06;5023744;28;19914;-49
2023/12/17 12:17:06;;;;;;;;;;;;;;;21.87;39.20;103397.38;5040503;28;19914;-44
2023/12/17 12:19:31;;;;;;;;;;;;;;;21.92;38.97;103400.59;5020531;28;19912;-44
2023/12/17 12:21:56;;;;;;;;;;;;;;;21.98;38.81;103401.03;5010282;28;20341;-44
2023/12/17 12:24:21;;;;;;;;;;;;;;;22.01;38.90;103398.94;5039443;28;19988;-44
2023/12/17 12:26:47;;;;;;;;;;;;;;;22.09;38.74;103387.44;5068201;28;19942;-45
2023/12/17 12:29:12;;;;;;;;;;;;;;;22.14;38.57;103386.13;5031853;28;20078;-44